createdAt,value
2017-09-30T00:00:48.627Z,6.03
2017-09-30T00:03:14.888Z,6.60
2017-09-30T00:05:41.178Z,6.07
2017-09-30T00:08:07.508Z,6.13
2017-09-30T00:10:34.452Z,5.90
2017-09-30T00:13:00.623Z,6.10
2017-09-30T00:15:27.576Z,6.50
2017-09-30T00:17:53.832Z,5.93
2017-09-30T00:20:20.194Z,6.60
2017-09-30T00:22:46.432Z,6.07
2017-09-30T00:25:12.643Z,7.03
2017-09-30T00:27:38.802Z,6.60
2017-09-30T00:30:06.795Z,6.20
2017-09-30T00:32:33.179Z,7.60
2017-09-30T00:34:59.627Z,6.73
2017-09-30T00:37:25.976Z,6.77
2017-09-30T00:39:52.267Z,6.77
2017-09-30T00:42:19.324Z,6.23
2017-09-30T00:44:45.651Z,6.90
2017-09-30T00:47:11.999Z,6.10
2017-09-30T00:49:38.313Z,6.90
2017-09-30T00:52:04.674Z,6.53
2017-09-30T00:54:31.033Z,7.67
2017-09-30T00:56:57.414Z,7.07
2017-09-30T00:59:23.767Z,7.20
2017-09-30T01:01:50.104Z,6.80
2017-09-30T01:04:16.427Z,6.27
2017-09-30T01:06:43.559Z,6.47
2017-09-30T01:09:09.867Z,7.20
2017-09-30T01:11:36.234Z,7.87
2017-09-30T01:14:02.580Z,6.90
2017-09-30T01:16:28.957Z,7.80
2017-09-30T01:18:55.311Z,7.37
2017-09-30T01:21:26.124Z,11.80
2017-09-30T01:23:52.616Z,11.43
2017-09-30T01:26:19.020Z,13.33
2017-09-30T01:28:45.436Z,14.90
2017-09-30T01:31:11.791Z,13.70
2017-09-30T01:33:38.167Z,14.60
2017-09-30T01:36:11.209Z,14.77
2017-09-30T01:38:37.584Z,14.40
2017-09-30T01:41:03.977Z,12.43
2017-09-30T01:43:30.378Z,12.17
2017-09-30T01:45:56.789Z,12.90
2017-09-30T01:48:23.990Z,12.70
2017-09-30T01:50:51.237Z,10.37
2017-09-30T01:53:17.631Z,11.30
2017-09-30T01:55:44.044Z,12.00
2017-09-30T01:58:10.400Z,9.90
2017-09-30T02:00:36.725Z,10.47
2017-09-30T02:03:03.100Z,9.50
2017-09-30T02:05:29.517Z,8.97
2017-09-30T02:07:55.915Z,8.90
2017-09-30T02:10:22.320Z,7.40
2017-09-30T02:12:48.936Z,8.20
2017-09-30T02:15:15.401Z,7.67
2017-09-30T02:17:41.816Z,6.87
2017-09-30T02:20:08.211Z,7.63
2017-09-30T02:22:35.349Z,7.70
2017-09-30T02:25:01.708Z,6.50
2017-09-30T02:27:31.132Z,6.40
2017-09-30T02:29:57.573Z,6.00
2017-09-30T02:32:24.704Z,5.17
2017-09-30T02:34:51.063Z,5.17
2017-09-30T02:37:17.404Z,5.10
2017-09-30T02:39:43.788Z,5.87
2017-09-30T02:42:10.128Z,4.73
2017-09-30T02:44:36.595Z,5.53
2017-09-30T02:47:03.013Z,5.30
2017-09-30T02:49:29.385Z,5.93
2017-09-30T02:51:55.746Z,6.57
2017-09-30T02:54:22.132Z,7.07
2017-09-30T02:56:48.512Z,6.33
2017-09-30T02:59:14.839Z,7.50
2017-09-30T03:01:46.091Z,7.30
2017-09-30T03:04:12.689Z,8.37
2017-09-30T03:06:39.228Z,7.57
2017-09-30T03:09:05.586Z,7.27
2017-09-30T03:11:31.919Z,7.50
2017-09-30T03:13:58.204Z,8.77
2017-09-30T03:16:24.513Z,7.63
2017-09-30T03:18:50.872Z,8.40
2017-09-30T03:21:17.245Z,8.60
2017-09-30T03:23:44.285Z,9.00
2017-09-30T03:26:11.338Z,9.77
2017-09-30T03:28:38.826Z,9.13
2017-09-30T03:31:05.099Z,9.90
2017-09-30T03:33:31.419Z,9.00
2017-09-30T03:35:57.833Z,9.60
2017-09-30T03:38:24.911Z,8.60
2017-09-30T03:40:51.192Z,9.13
2017-09-30T03:43:23.584Z,9.00
2017-09-30T03:45:49.884Z,9.40
2017-09-30T03:48:16.227Z,10.03
2017-09-30T03:50:42.622Z,9.97
2017-09-30T03:53:13.795Z,10.60
2017-09-30T03:55:40.135Z,8.80
2017-09-30T03:58:07.339Z,9.77
2017-09-30T04:00:33.687Z,9.80
2017-09-30T04:03:00.011Z,10.13
2017-09-30T04:05:26.354Z,9.70
2017-09-30T04:07:52.726Z,10.70
2017-09-30T04:10:19.028Z,10.70
2017-09-30T04:12:45.400Z,11.60
2017-09-30T04:15:11.742Z,11.20
2017-09-30T04:17:40.444Z,10.97
2017-09-30T04:20:06.790Z,11.07
2017-09-30T04:22:33.142Z,11.03
2017-09-30T04:24:59.445Z,12.13
2017-09-30T04:27:25.880Z,10.20
2017-09-30T04:29:52.540Z,11.67
2017-09-30T04:32:18.916Z,10.97
2017-09-30T04:34:45.253Z,11.43
2017-09-30T04:37:11.698Z,11.80
2017-09-30T04:39:38.865Z,12.53
2017-09-30T04:42:05.215Z,12.73
2017-09-30T04:44:31.536Z,11.60
2017-09-30T04:46:57.909Z,12.10
2017-09-30T04:49:24.239Z,12.80
2017-09-30T04:51:51.394Z,11.33
2017-09-30T04:54:17.724Z,10.97
2017-09-30T04:56:44.055Z,10.63
2017-09-30T04:59:10.387Z,10.47
2017-09-30T05:01:37.132Z,10.50
2017-09-30T05:04:03.597Z,11.77
2017-09-30T05:06:29.915Z,10.70
2017-09-30T05:08:56.250Z,10.40
2017-09-30T05:11:23.188Z,10.20
2017-09-30T05:13:49.515Z,9.73
2017-09-30T05:16:15.941Z,10.00
2017-09-30T05:18:42.569Z,9.23
2017-09-30T05:21:08.904Z,9.67
2017-09-30T05:23:35.946Z,9.60
2017-09-30T05:26:02.350Z,8.00
2017-09-30T05:28:30.034Z,9.80
2017-09-30T05:30:56.687Z,8.13
2017-09-30T05:33:23.826Z,9.10
2017-09-30T05:35:50.245Z,8.47
2017-09-30T05:38:16.709Z,9.17
2017-09-30T05:40:44.046Z,8.43
2017-09-30T05:43:11.089Z,7.77
2017-09-30T05:45:37.440Z,8.60
2017-09-30T05:48:04.609Z,8.17
2017-09-30T05:50:30.954Z,8.47
2017-09-30T05:52:58.608Z,7.30
2017-09-30T05:57:57.997Z,7.20
2017-09-30T06:00:24.408Z,7.47
2017-09-30T06:02:50.850Z,6.80
2017-09-30T06:05:17.987Z,6.97
2017-09-30T06:07:44.404Z,7.30
2017-09-30T06:10:10.839Z,6.80
2017-09-30T06:12:37.256Z,6.90
2017-09-30T06:15:03.717Z,6.13
2017-09-30T06:17:30.931Z,5.63
2017-09-30T06:19:57.512Z,5.90
2017-09-30T06:22:23.914Z,6.00
2017-09-30T06:24:50.244Z,5.77
2017-09-30T06:27:16.640Z,5.93
2017-09-30T06:29:43.477Z,6.50
2017-09-30T06:32:10.017Z,7.20
2017-09-30T06:34:36.473Z,8.00
2017-09-30T06:37:02.840Z,7.53
2017-09-30T06:39:29.292Z,8.00
2017-09-30T06:41:55.904Z,7.43
2017-09-30T06:44:22.325Z,8.37
2017-09-30T06:46:48.728Z,8.03
2017-09-30T06:49:15.213Z,8.17
2017-09-30T06:51:41.604Z,8.40
2017-09-30T06:54:08.707Z,9.00
2017-09-30T06:56:36.036Z,7.60
2017-09-30T06:59:02.551Z,7.93
2017-09-30T07:01:29.050Z,8.00
2017-09-30T07:03:56.130Z,7.17
2017-09-30T07:06:26.112Z,7.77
2017-09-30T07:08:53.280Z,7.70
2017-09-30T07:11:19.721Z,7.60
2017-09-30T07:13:49.222Z,7.53
2017-09-30T07:16:15.875Z,7.27
2017-09-30T07:18:43.687Z,7.27
2017-09-30T07:21:10.856Z,6.67
2017-09-30T07:23:37.308Z,7.17
2017-09-30T07:26:03.643Z,7.97
2017-09-30T07:28:29.965Z,6.50
2017-09-30T07:30:56.364Z,7.47
2017-09-30T07:33:22.730Z,6.37
2017-09-30T07:35:51.516Z,5.30
2017-09-30T07:38:17.944Z,6.03
2017-09-30T07:40:44.339Z,5.50
2017-09-30T07:43:10.732Z,5.63
2017-09-30T07:45:37.872Z,5.73
2017-09-30T07:48:04.273Z,6.00
2017-09-30T07:50:30.732Z,5.90
2017-09-30T07:52:57.136Z,5.70
2017-09-30T07:55:24.298Z,6.40
2017-09-30T07:57:50.683Z,6.07
2017-09-30T08:00:17.064Z,5.70
2017-09-30T08:02:43.450Z,6.30
2017-09-30T08:05:09.822Z,6.17
2017-09-30T08:07:43.910Z,6.73
2017-09-30T08:10:10.128Z,6.13
2017-09-30T08:12:36.506Z,6.30
2017-09-30T08:15:02.849Z,6.30
2017-09-30T08:17:29.062Z,6.60
2017-09-30T08:19:59.155Z,6.10
2017-09-30T08:22:25.528Z,6.67
2017-09-30T08:24:51.697Z,6.53
2017-09-30T08:27:19.593Z,6.53
2017-09-30T08:29:45.841Z,6.53
2017-09-30T08:32:12.076Z,6.67
2017-09-30T08:34:39.823Z,6.53
2017-09-30T08:37:05.970Z,6.80
2017-09-30T08:39:32.198Z,7.00
2017-09-30T08:41:58.389Z,6.30
2017-09-30T08:44:24.553Z,6.37
2017-09-30T08:46:50.714Z,5.23
2017-09-30T08:49:17.753Z,6.17
2017-09-30T08:51:43.922Z,5.53
2017-09-30T08:54:11.393Z,5.20
2017-09-30T08:56:40.191Z,4.87
2017-09-30T08:59:07.062Z,5.43
2017-09-30T09:01:33.260Z,5.60
2017-09-30T09:03:59.596Z,5.83
2017-09-30T09:06:26.556Z,5.73
2017-09-30T09:11:24.208Z,6.53
2017-09-30T09:13:50.445Z,7.10
2017-09-30T09:16:16.649Z,6.20
2017-09-30T09:18:42.853Z,7.80
2017-09-30T09:21:09.126Z,7.20
2017-09-30T09:23:35.328Z,6.93
2017-09-30T09:26:01.500Z,7.43
2017-09-30T09:28:27.685Z,7.43
2017-09-30T09:30:53.884Z,7.37
2017-09-30T09:33:20.076Z,8.47
2017-09-30T09:35:46.285Z,8.13
2017-09-30T09:38:25.935Z,9.37
2017-09-30T09:40:53.020Z,9.60
2017-09-30T09:43:19.319Z,10.20
2017-09-30T09:45:46.336Z,10.00
2017-09-30T09:48:12.636Z,9.00
2017-09-30T09:50:38.851Z,8.17
2017-09-30T09:53:05.151Z,8.63
2017-09-30T09:55:32.110Z,9.07
2017-09-30T09:57:59.830Z,7.27
2017-09-30T10:00:26.055Z,7.77
2017-09-30T10:02:52.348Z,6.67
2017-09-30T10:05:19.363Z,6.50
2017-09-30T10:07:45.744Z,6.33
2017-09-30T10:10:12.714Z,5.93
2017-09-30T10:12:39.621Z,5.73
2017-09-30T10:15:09.092Z,5.50
2017-09-30T10:17:35.382Z,5.47
2017-09-30T10:20:01.767Z,5.40
2017-09-30T10:22:28.715Z,6.10
2017-09-30T10:24:54.867Z,5.77
2017-09-30T10:27:21.147Z,4.57
2017-09-30T10:29:47.335Z,4.50
2017-09-30T10:32:13.541Z,4.80
2017-09-30T10:34:39.701Z,4.57
2017-09-30T10:37:06.840Z,5.57
2017-09-30T10:39:33.789Z,6.80
2017-09-30T10:41:59.992Z,5.40
2017-09-30T10:44:26.207Z,5.33
2017-09-30T10:46:53.163Z,6.10
2017-09-30T10:49:19.371Z,6.23
2017-09-30T10:51:46.912Z,5.90
2017-09-30T10:54:13.068Z,5.40
2017-09-30T10:56:40.372Z,5.13
2017-09-30T10:59:06.619Z,6.10
2017-09-30T11:01:32.884Z,4.80
2017-09-30T11:03:59.057Z,4.67
2017-09-30T11:06:26.006Z,5.33
2017-09-30T11:08:52.177Z,5.30
2017-09-30T11:11:19.411Z,6.40
2017-09-30T11:13:46.320Z,6.20
2017-09-30T11:16:12.505Z,6.40
2017-09-30T11:18:39.584Z,5.93
2017-09-30T11:21:06.652Z,5.70
2017-09-30T11:23:32.843Z,6.10
2017-09-30T11:25:59.635Z,5.70
2017-09-30T11:28:27.535Z,6.17
2017-09-30T11:30:53.765Z,6.13
2017-09-30T11:33:20.033Z,5.10
2017-09-30T11:35:46.234Z,5.87
2017-09-30T11:38:13.160Z,5.90
2017-09-30T11:40:39.356Z,6.00
2017-09-30T11:43:06.100Z,6.43
2017-09-30T11:45:32.319Z,6.30
2017-09-30T11:47:58.467Z,5.80
2017-09-30T11:50:25.427Z,5.00
2017-09-30T11:52:51.638Z,5.63
2017-09-30T11:55:18.680Z,4.40
2017-09-30T11:57:45.202Z,3.53
2017-09-30T12:00:11.509Z,3.33
2017-09-30T12:02:37.752Z,3.40
2017-09-30T12:05:03.988Z,3.77
2017-09-30T12:07:30.927Z,3.67
2017-09-30T12:09:57.099Z,3.23
2017-09-30T12:12:23.384Z,3.80
2017-09-30T12:14:49.565Z,3.97
2017-09-30T12:20:25.372Z,4.10
2017-09-30T12:22:51.796Z,4.17
2017-09-30T12:25:18.113Z,3.70
2017-09-30T12:27:44.414Z,3.70
2017-09-30T12:30:11.467Z,4.13
2017-09-30T12:32:37.795Z,4.10
2017-09-30T12:35:04.121Z,3.60
2017-09-30T12:37:30.406Z,3.60
2017-09-30T12:39:57.455Z,3.63
2017-09-30T12:42:23.784Z,3.80
2017-09-30T12:44:50.899Z,3.80
2017-09-30T12:47:17.209Z,3.87
2017-09-30T12:49:43.527Z,3.17
2017-09-30T12:52:09.831Z,3.00
2017-09-30T12:54:36.195Z,3.17
2017-09-30T12:57:02.577Z,2.23
2017-09-30T12:59:29.657Z,2.40
2017-09-30T13:01:56.683Z,2.60
2017-09-30T13:04:23.208Z,3.40
2017-09-30T13:06:49.530Z,3.10
2017-09-30T13:09:15.845Z,3.27
2017-09-30T13:11:42.885Z,2.63
2017-09-30T13:14:09.214Z,2.50
2017-09-30T13:16:35.837Z,1.90
2017-09-30T13:19:02.388Z,2.10
2017-09-30T13:21:28.880Z,1.60
2017-09-30T13:23:55.308Z,1.93
2017-09-30T13:26:29.888Z,2.50
2017-09-30T13:28:56.320Z,2.53
2017-09-30T13:31:22.793Z,1.97
2017-09-30T13:33:49.298Z,1.90
2017-09-30T13:36:16.462Z,2.90
2017-09-30T13:38:42.932Z,1.60
2017-09-30T13:41:09.979Z,1.87
2017-09-30T13:43:37.061Z,2.10
2017-09-30T13:46:03.448Z,2.43
2017-09-30T13:48:29.748Z,1.90
2017-09-30T13:50:56.216Z,2.00
2017-09-30T13:53:22.535Z,2.03
2017-09-30T13:55:48.984Z,2.00
2017-09-30T13:58:15.349Z,2.03
2017-09-30T14:00:41.694Z,2.73
2017-09-30T14:03:08.018Z,2.20
2017-09-30T14:05:34.556Z,3.10
2017-09-30T14:08:00.873Z,2.77
2017-09-30T14:10:27.964Z,3.07
2017-09-30T14:12:54.286Z,3.03
2017-09-30T14:15:20.801Z,3.20
2017-09-30T14:17:47.136Z,3.60
2017-09-30T14:20:13.457Z,3.63
2017-09-30T14:22:39.834Z,4.23
2017-09-30T14:25:06.170Z,4.70
2017-09-30T14:27:32.473Z,4.10
2017-09-30T14:29:59.544Z,4.50
2017-09-30T14:32:25.923Z,4.10
2017-09-30T14:34:52.322Z,3.53
2017-09-30T14:37:18.714Z,4.10
2017-09-30T14:39:45.045Z,4.17
2017-09-30T14:42:12.105Z,4.53
2017-09-30T14:44:38.569Z,4.57
2017-09-30T14:47:08.647Z,5.63
2017-09-30T14:49:34.971Z,5.07
2017-09-30T14:52:02.060Z,4.93
2017-09-30T14:54:28.934Z,4.37
2017-09-30T14:57:02.976Z,4.07
2017-09-30T14:59:29.904Z,3.93
2017-09-30T15:02:01.006Z,4.17
2017-09-30T15:04:28.133Z,3.40
2017-09-30T15:06:54.472Z,4.53
2017-09-30T15:09:20.793Z,3.97
2017-09-30T15:11:47.080Z,4.17
2017-09-30T15:14:13.411Z,4.67
2017-09-30T15:16:39.795Z,3.70
2017-09-30T15:19:06.085Z,4.40
2017-09-30T15:21:35.183Z,4.60
2017-09-30T15:24:01.541Z,4.00
2017-09-30T15:26:28.606Z,4.10
2017-09-30T15:28:54.923Z,3.53
2017-09-30T15:31:21.242Z,4.50
2017-09-30T15:33:47.529Z,4.47
2017-09-30T15:36:13.847Z,3.93
2017-09-30T15:38:46.602Z,3.97
2017-09-30T15:41:12.724Z,3.87
2017-09-30T15:43:39.017Z,2.00
2017-09-30T15:46:05.330Z,1.50
2017-09-30T15:48:32.371Z,2.50
2017-09-30T15:50:58.472Z,2.30
2017-09-30T15:53:24.581Z,2.23
2017-09-30T15:55:54.724Z,2.17
2017-09-30T15:58:21.650Z,2.47
2017-09-30T16:00:47.791Z,2.77
2017-09-30T16:03:13.950Z,2.70
2017-09-30T16:05:40.813Z,3.40
2017-09-30T16:08:07.751Z,2.90
2017-09-30T16:10:33.863Z,3.27
2017-09-30T16:13:00.734Z,2.70
2017-09-30T16:15:27.608Z,2.40
2017-09-30T16:17:53.721Z,3.50
2017-09-30T16:20:38.052Z,3.50
2017-09-30T16:23:04.590Z,3.57
2017-09-30T16:25:31.024Z,4.23
2017-09-30T16:27:57.426Z,4.50
2017-09-30T16:30:23.770Z,4.50
2017-09-30T16:32:50.065Z,4.60
2017-09-30T16:35:16.405Z,5.57
2017-09-30T16:37:42.765Z,11.37
2017-09-30T16:40:09.052Z,8.57
2017-09-30T16:42:35.338Z,9.10
2017-09-30T16:45:01.678Z,6.80
2017-09-30T16:47:27.959Z,7.03
2017-09-30T16:49:55.021Z,6.82
2017-09-30T16:52:21.344Z,6.87
2017-09-30T16:54:47.752Z,5.17
2017-09-30T16:57:14.057Z,4.10
2017-09-30T16:59:40.396Z,3.60
2017-09-30T17:02:06.702Z,3.93
2017-09-30T17:04:33.384Z,4.40
2017-09-30T17:06:59.694Z,3.33
2017-09-30T17:09:26.016Z,3.70
2017-09-30T17:11:53.077Z,4.33
2017-09-30T17:14:19.397Z,5.30
2017-09-30T17:16:45.728Z,3.53
2017-09-30T17:19:12.021Z,4.07
2017-09-30T17:21:38.318Z,4.07
2017-09-30T17:24:04.605Z,3.80
2017-09-30T17:26:30.897Z,4.17
2017-09-30T17:28:57.208Z,3.80
2017-09-30T17:31:23.549Z,4.00
2017-09-30T17:33:55.045Z,4.80
2017-09-30T17:36:21.916Z,4.13
2017-09-30T17:38:48.040Z,4.53
2017-09-30T17:41:14.146Z,4.90
2017-09-30T17:43:41.070Z,4.47
2017-09-30T17:46:07.215Z,5.10
2017-09-30T17:48:36.991Z,5.97
2017-09-30T17:51:05.352Z,5.00
2017-09-30T17:53:33.326Z,5.80
2017-09-30T17:56:00.171Z,5.00
2017-09-30T17:58:27.321Z,5.07
2017-09-30T18:00:53.469Z,6.17
2017-09-30T18:03:25.930Z,6.40
2017-09-30T18:05:52.057Z,5.67
2017-09-30T18:08:18.145Z,5.80
2017-09-30T18:10:44.277Z,5.63
2017-09-30T18:13:10.396Z,5.80
2017-09-30T18:15:37.286Z,5.63
2017-09-30T18:18:04.146Z,5.10
2017-09-30T18:20:30.274Z,5.97
2017-09-30T18:22:59.643Z,5.57
2017-09-30T18:25:26.000Z,5.63
2017-09-30T18:27:52.165Z,6.00
2017-09-30T18:30:18.266Z,6.53
2017-09-30T18:32:45.105Z,7.70
2017-09-30T18:35:11.218Z,6.90
2017-09-30T18:37:37.305Z,8.13
2017-09-30T18:40:03.405Z,7.47
2017-09-30T18:42:36.266Z,7.10
2017-09-30T18:45:02.394Z,7.23
2017-09-30T18:47:28.506Z,7.77
2017-09-30T18:49:54.592Z,7.50
2017-09-30T18:52:20.726Z,7.60
2017-09-30T18:54:46.846Z,9.10
2017-09-30T18:57:12.959Z,8.07
2017-09-30T18:59:39.063Z,8.10
2017-09-30T19:02:11.845Z,9.30
2017-09-30T19:04:37.951Z,8.70
2017-09-30T19:07:04.188Z,8.90
2017-09-30T19:09:30.325Z,8.80
2017-09-30T19:11:56.510Z,7.90
2017-09-30T19:14:22.615Z,8.33
2017-09-30T19:16:49.475Z,9.80
2017-09-30T19:19:15.628Z,9.13
2017-09-30T19:21:44.870Z,9.10
2017-09-30T19:24:11.034Z,8.33
2017-09-30T19:26:37.217Z,8.70
2017-09-30T19:29:03.465Z,9.90
2017-09-30T19:31:29.663Z,7.80
2017-09-30T19:33:56.596Z,8.40
2017-09-30T19:36:22.698Z,8.93
2017-09-30T19:38:48.831Z,9.70
2017-09-30T19:41:14.967Z,8.90
2017-09-30T19:43:41.207Z,8.97
2017-09-30T19:46:07.416Z,9.53
2017-09-30T19:48:34.335Z,9.30
2017-09-30T19:51:01.258Z,10.37
2017-09-30T19:53:27.371Z,9.60
2017-09-30T19:55:53.477Z,10.27
2017-09-30T19:58:19.586Z,9.93
2017-09-30T20:00:45.702Z,9.90
2017-09-30T20:03:12.600Z,10.17
2017-09-30T20:05:38.733Z,9.87
2017-09-30T20:08:04.901Z,10.03
2017-09-30T20:10:31.768Z,11.37
2017-09-30T20:12:57.889Z,11.73
2017-09-30T20:15:24.962Z,11.40
2017-09-30T20:17:52.469Z,12.60
2017-09-30T20:20:20.591Z,12.80
2017-09-30T20:22:46.710Z,13.97
2017-09-30T20:25:13.560Z,14.20
2017-09-30T20:27:39.718Z,15.93
2017-09-30T20:30:05.870Z,15.30
2017-09-30T20:32:31.964Z,15.53
2017-09-30T20:34:58.819Z,16.40
2017-09-30T20:37:31.020Z,16.03
2017-09-30T20:39:57.145Z,17.20
2017-09-30T20:42:23.278Z,18.42
2017-09-30T20:44:50.149Z,17.37
2017-09-30T20:47:16.266Z,16.53
2017-09-30T20:49:42.418Z,19.90
2017-09-30T20:52:15.441Z,18.13
2017-09-30T20:54:45.047Z,18.77
2017-09-30T20:57:11.153Z,21.20
2017-09-30T20:59:37.326Z,21.90
2017-09-30T21:02:03.441Z,20.20
2017-09-30T21:04:29.595Z,20.92
2017-09-30T21:06:55.730Z,20.27
2017-09-30T21:09:22.591Z,21.87
2017-09-30T21:11:49.653Z,21.77
2017-09-30T21:14:19.117Z,20.50
2017-09-30T21:16:45.256Z,22.63
2017-09-30T21:19:11.385Z,20.53
2017-09-30T21:21:37.555Z,19.83
2017-09-30T21:24:03.661Z,20.20
2017-09-30T21:26:29.926Z,21.60
2017-09-30T21:28:56.824Z,20.02
2017-09-30T21:31:23.709Z,20.08
2017-09-30T21:33:53.777Z,22.92
2017-09-30T21:36:20.655Z,23.15
2017-09-30T21:38:46.856Z,23.00
2017-09-30T21:41:12.985Z,21.20
2017-09-30T21:43:39.826Z,22.67
2017-09-30T21:46:06.000Z,21.30
2017-09-30T21:48:32.116Z,20.65
2017-09-30T21:53:30.473Z,22.60
2017-09-30T21:55:56.776Z,22.20
2017-09-30T21:58:23.115Z,20.23
2017-09-30T22:00:50.214Z,20.73
2017-09-30T22:03:16.549Z,22.80
2017-09-30T22:05:43.727Z,21.60
2017-09-30T22:08:13.217Z,19.33
2017-09-30T22:10:39.534Z,22.33
2017-09-30T22:13:05.816Z,20.75
2017-09-30T22:15:32.131Z,22.93
2017-09-30T22:17:58.406Z,22.83
2017-09-30T22:20:24.749Z,23.45
2017-09-30T22:22:51.079Z,23.10
2017-09-30T22:25:17.381Z,21.42
2017-09-30T22:27:48.272Z,22.25
2017-09-30T22:30:14.657Z,24.12
2017-09-30T22:32:40.996Z,23.00
2017-09-30T22:35:07.275Z,21.93
2017-09-30T22:37:33.591Z,22.30
2017-09-30T22:39:59.916Z,22.07
2017-09-30T22:42:26.232Z,24.17
2017-09-30T22:44:53.267Z,22.02
2017-09-30T22:47:20.324Z,23.02
2017-09-30T22:49:47.455Z,23.25
2017-09-30T22:52:13.775Z,24.23
2017-09-30T22:54:40.085Z,23.62
2017-09-30T22:57:06.410Z,24.77
2017-09-30T22:59:33.479Z,24.73
2017-09-30T23:02:00.235Z,23.30
2017-09-30T23:04:27.269Z,23.90
2017-09-30T23:06:53.581Z,25.58
2017-09-30T23:09:19.872Z,24.33
2017-09-30T23:11:47.014Z,25.30
2017-09-30T23:14:13.336Z,25.70
2017-09-30T23:16:39.627Z,24.35
2017-09-30T23:19:06.280Z,26.00
2017-09-30T23:21:32.621Z,23.30
2017-09-30T23:23:59.649Z,24.30
2017-09-30T23:26:27.005Z,22.60
2017-09-30T23:28:53.293Z,19.98
2017-09-30T23:31:20.351Z,21.75
2017-09-30T23:33:47.393Z,22.80
2017-09-30T23:36:14.429Z,21.05
2017-09-30T23:38:40.734Z,21.67
2017-09-30T23:41:07.019Z,21.50
2017-09-30T23:43:34.494Z,22.42
2017-09-30T23:46:01.603Z,23.67
2017-09-30T23:48:27.924Z,22.27
2017-09-30T23:50:54.993Z,23.05
2017-09-30T23:53:21.345Z,22.13
2017-09-30T23:55:47.701Z,24.87
2017-09-30T23:58:14.037Z,23.55
